sensor_id;sensor_type;location;lat;lon;timestamp;pressure;altitude;pressure_sealevel;temperature;humidity
26865;BME280;40618;51.166;10.322;2023-06-14T00:01:44;97382.94;;;17.86;39.43
26865;BME280;40618;51.166;10.322;2023-06-14T00:04:11;97377.91;;;17.83;39.44
26865;BME280;40618;51.166;10.322;2023-06-14T00:06:37;97370.06;;;17.69;39.85
26865;BME280;40618;51.166;10.322;2023-06-14T00:09:04;97374.63;;;17.65;40.00
26865;BME280;40618;51.166;10.322;2023-06-14T00:11:30;97375.00;;;17.59;39.85
26865;BME280;40618;51.166;10.322;2023-06-14T00:13:57;97365.00;;;17.51;40.11
26865;BME280;40618;51.166;10.322;2023-06-14T00:16:22;97360.88;;;17.47;40.41
26865;BME280;40618;51.166;10.322;2023-06-14T00:18:48;97367.31;;;17.41;40.40
26865;BME280;40618;51.166;10.322;2023-06-14T00:21:14;97354.69;;;17.34;40.48
26865;BME280;40618;51.166;10.322;2023-06-14T00:23:40;97355.88;;;17.28;40.24
26865;BME280;40618;51.166;10.322;2023-06-14T00:26:05;97361.31;;;17.25;40.34
26865;BME280;40618;51.166;10.322;2023-06-14T00:28:31;97357.81;;;17.24;40.56
26865;BME280;40618;51.166;10.322;2023-06-14T00:30:56;97356.31;;;17.20;40.82
26865;BME280;40618;51.166;10.322;2023-06-14T00:33:22;97358.22;;;17.18;40.84
26865;BME280;40618;51.166;10.322;2023-06-14T00:35:48;97361.94;;;17.14;40.71
26865;BME280;40618;51.166;10.322;2023-06-14T00:38:13;97356.03;;;17.11;40.99
26865;BME280;40618;51.166;10.322;2023-06-14T00:40:39;97364.78;;;17.09;41.28
26865;BME280;40618;51.166;10.322;2023-06-14T00:43:05;97357.47;;;17.00;41.21
26865;BME280;40618;51.166;10.322;2023-06-14T00:45:31;97364.06;;;16.75;41.34
26865;BME280;40618;51.166;10.322;2023-06-14T00:48:01;97370.25;;;16.74;41.47
26865;BME280;40618;51.166;10.322;2023-06-14T00:50:28;97360.03;;;16.70;41.59
26865;BME280;40618;51.166;10.322;2023-06-14T00:52:55;97362.06;;;16.65;41.48
26865;BME280;40618;51.166;10.322;2023-06-14T00:55:21;97362.69;;;16.54;41.58
26865;BME280;40618;51.166;10.322;2023-06-14T00:57:48;97362.53;;;16.57;41.89
26865;BME280;40618;51.166;10.322;2023-06-14T01:00:14;97364.13;;;16.60;42.26
26865;BME280;40618;51.166;10.322;2023-06-14T01:02:40;97362.34;;;16.60;41.90
26865;BME280;40618;51.166;10.322;2023-06-14T01:05:07;97360.31;;;16.49;42.21
26865;BME280;40618;51.166;10.322;2023-06-14T01:13:20;97353.75;;;16.42;42.58
26865;BME280;40618;51.166;10.322;2023-06-14T01:15:51;97349.63;;;16.38;42.41
26865;BME280;40618;51.166;10.322;2023-06-14T01:18:18;97353.84;;;16.40;42.58
26865;BME280;40618;51.166;10.322;2023-06-14T01:20:45;97342.72;;;16.37;42.55
26865;BME280;40618;51.166;10.322;2023-06-14T01:23:15;97364.56;;;16.20;42.33
26865;BME280;40618;51.166;10.322;2023-06-14T01:25:41;97360.03;;;15.90;43.18
26865;BME280;40618;51.166;10.322;2023-06-14T01:28:10;97361.97;;;15.86;43.09
26865;BME280;40618;51.166;10.322;2023-06-14T01:30:39;97362.81;;;15.87;43.22
26865;BME280;40618;51.166;10.322;2023-06-14T01:33:14;97357.91;;;15.81;43.26
26865;BME280;40618;51.166;10.322;2023-06-14T01:35:43;97361.75;;;15.73;43.68
26865;BME280;40618;51.166;10.322;2023-06-14T01:38:10;97357.91;;;15.63;43.42
26865;BME280;40618;51.166;10.322;2023-06-14T01:40:39;97360.59;;;15.62;43.63
26865;BME280;40618;51.166;10.322;2023-06-14T01:43:06;97361.69;;;15.57;43.60
26865;BME280;40618;51.166;10.322;2023-06-14T01:45:33;97357.31;;;15.58;44.02
26865;BME280;40618;51.166;10.322;2023-06-14T01:48:00;97358.09;;;15.60;44.16
26865;BME280;40618;51.166;10.322;2023-06-14T01:50:32;97365.91;;;15.60;44.12
26865;BME280;40618;51.166;10.322;2023-06-14T01:52:58;97359.09;;;15.57;43.89
26865;BME280;40618;51.166;10.322;2023-06-14T01:55:24;97367.38;;;15.48;44.41
26865;BME280;40618;51.166;10.322;2023-06-14T01:57:53;97362.16;;;15.48;44.23
26865;BME280;40618;51.166;10.322;2023-06-14T02:00:19;97363.84;;;15.49;44.29
26865;BME280;40618;51.166;10.322;2023-06-14T02:02:46;97362.16;;;15.48;44.65
26865;BME280;40618;51.166;10.322;2023-06-14T02:05:12;97364.56;;;15.53;44.45
26865;BME280;40618;51.166;10.322;2023-06-14T02:07:38;97364.47;;;15.54;44.65
26865;BME280;40618;51.166;10.322;2023-06-14T02:10:04;97362.84;;;15.52;44.65
26865;BME280;40618;51.166;10.322;2023-06-14T02:12:30;97368.16;;;15.50;44.63
26865;BME280;40618;51.166;10.322;2023-06-14T02:14:56;97360.56;;;15.46;44.63
26865;BME280;40618;51.166;10.322;2023-06-14T02:17:23;97368.53;;;15.43;44.99
26865;BME280;40618;51.166;10.322;2023-06-14T02:19:49;97362.63;;;15.39;45.12
26865;BME280;40618;51.166;10.322;2023-06-14T02:22:15;97362.94;;;15.33;45.04
26865;BME280;40618;51.166;10.322;2023-06-14T02:24:42;97363.75;;;15.17;44.96
26865;BME280;40618;51.166;10.322;2023-06-14T02:27:08;97359.97;;;15.05;45.30
26865;BME280;40618;51.166;10.322;2023-06-14T02:29:35;97364.97;;;14.93;45.35
26865;BME280;40618;51.166;10.322;2023-06-14T02:32:01;97359.78;;;14.91;45.55
26865;BME280;40618;51.166;10.322;2023-06-14T02:34:27;97366.94;;;14.87;45.83
26865;BME280;40618;51.166;10.322;2023-06-14T02:36:53;97378.19;;;14.88;45.52
26865;BME280;40618;51.166;10.322;2023-06-14T02:39:19;97371.97;;;14.73;45.87
26865;BME280;40618;51.166;10.322;2023-06-14T02:41:46;97372.88;;;14.72;45.75
26865;BME280;40618;51.166;10.322;2023-06-14T02:44:14;97369.78;;;14.64;45.72
26865;BME280;40618;51.166;10.322;2023-06-14T02:46:40;97369.94;;;14.42;46.25
26865;BME280;40618;51.166;10.322;2023-06-14T02:49:06;97374.81;;;14.49;46.16
26865;BME280;40618;51.166;10.322;2023-06-14T02:51:31;97375.00;;;14.45;46.50
26865;BME280;40618;51.166;10.322;2023-06-14T02:53:57;97376.44;;;14.33;46.66
26865;BME280;40618;51.166;10.322;2023-06-14T02:56:22;97373.91;;;14.31;46.43
26865;BME280;40618;51.166;10.322;2023-06-14T02:58:48;97371.97;;;14.35;46.81
26865;BME280;40618;51.166;10.322;2023-06-14T03:01:14;97376.13;;;14.39;46.76
26865;BME280;40618;51.166;10.322;2023-06-14T03:03:41;97368.41;;;14.37;46.79
26865;BME280;40618;51.166;10.322;2023-06-14T03:06:06;97371.34;;;14.49;47.00
26865;BME280;40618;51.166;10.322;2023-06-14T03:08:33;97377.97;;;14.56;47.07
26865;BME280;40618;51.166;10.322;2023-06-14T03:11:04;97378.41;;;14.66;46.91
26865;BME280;40618;51.166;10.322;2023-06-14T03:13:34;97377.88;;;14.58;47.02
26865;BME280;40618;51.166;10.322;2023-06-14T03:16:00;97387.34;;;14.41;47.08
26865;BME280;40618;51.166;10.322;2023-06-14T03:18:29;97393.28;;;14.26;47.18
26865;BME280;40618;51.166;10.322;2023-06-14T03:20:56;97394.38;;;14.20;47.37
26865;BME280;40618;51.166;10.322;2023-06-14T03:23:24;97393.31;;;14.24;47.37
26865;BME280;40618;51.166;10.322;2023-06-14T03:25:50;97387.84;;;14.30;47.79
26865;BME280;40618;51.166;10.322;2023-06-14T03:28:16;97391.19;;;14.32;47.51
26865;BME280;40618;51.166;10.322;2023-06-14T03:30:42;97391.09;;;14.35;47.59
26865;BME280;40618;51.166;10.322;2023-06-14T03:33:08;97395.31;;;14.38;47.72
26865;BME280;40618;51.166;10.322;2023-06-14T03:35:34;97386.34;;;14.44;47.85
26865;BME280;40618;51.166;10.322;2023-06-14T03:38:00;97396.97;;;14.39;48.01
26865;BME280;40618;51.166;10.322;2023-06-14T03:40:26;97391.00;;;14.37;48.03
26865;BME280;40618;51.166;10.322;2023-06-14T03:42:53;97404.03;;;14.37;47.79
26865;BME280;40618;51.166;10.322;2023-06-14T03:45:20;97400.56;;;14.36;47.93
26865;BME280;40618;51.166;10.322;2023-06-14T03:47:46;97397.28;;;14.33;48.03
26865;BME280;40618;51.166;10.322;2023-06-14T03:50:12;97400.06;;;14.28;48.24
26865;BME280;40618;51.166;10.322;2023-06-14T03:52:38;97404.59;;;14.25;48.22
26865;BME280;40618;51.166;10.322;2023-06-14T03:55:04;97412.75;;;14.17;48.19
26865;BME280;40618;51.166;10.322;2023-06-14T03:57:30;97413.72;;;14.14;48.46
26865;BME280;40618;51.166;10.322;2023-06-14T03:59:56;97414.84;;;14.09;48.50
26865;BME280;40618;51.166;10.322;2023-06-14T04:02:22;97414.78;;;14.10;48.60
26865;BME280;40618;51.166;10.322;2023-06-14T04:04:48;97428.66;;;14.11;48.58
26865;BME280;40618;51.166;10.322;2023-06-14T04:07:15;97425.13;;;14.12;48.67
26865;BME280;40618;51.166;10.322;2023-06-14T04:09:44;97434.78;;;14.10;48.75
26865;BME280;40618;51.166;10.322;2023-06-14T04:12:10;97434.41;;;14.17;48.72
26865;BME280;40618;51.166;10.322;2023-06-14T04:14:39;97439.63;;;14.17;48.97
26865;BME280;40618;51.166;10.322;2023-06-14T04:17:06;97441.38;;;14.17;49.29
26865;BME280;40618;51.166;10.322;2023-06-14T04:19:32;97442.94;;;14.21;49.00
26865;BME280;40618;51.166;10.322;2023-06-14T04:21:58;97448.06;;;14.22;49.00
26865;BME280;40618;51.166;10.322;2023-06-14T04:24:28;97439.91;;;14.11;49.13
26865;BME280;40618;51.166;10.322;2023-06-14T04:27:00;97443.78;;;14.02;49.20
26865;BME280;40618;51.166;10.322;2023-06-14T04:29:26;97448.91;;;14.04;49.04
26865;BME280;40618;51.166;10.322;2023-06-14T04:31:55;97455.69;;;14.08;49.38
26865;BME280;40618;51.166;10.322;2023-06-14T04:34:26;97469.53;;;14.09;49.35
26865;BME280;40618;51.166;10.322;2023-06-14T04:36:57;97461.72;;;14.09;49.42
26865;BME280;40618;51.166;10.322;2023-06-14T04:39:25;97471.22;;;14.10;49.54
26865;BME280;40618;51.166;10.322;2023-06-14T04:41:51;97461.66;;;14.10;49.51
26865;BME280;40618;51.166;10.322;2023-06-14T04:44:19;97470.25;;;14.12;49.92
26865;BME280;40618;51.166;10.322;2023-06-14T04:46:49;97460.88;;;14.08;49.52
26865;BME280;40618;51.166;10.322;2023-06-14T04:49:15;97461.34;;;13.97;49.69
26865;BME280;40618;51.166;10.322;2023-06-14T04:51:42;97459.94;;;13.90;49.73
26865;BME280;40618;51.166;10.322;2023-06-14T04:54:10;97462.47;;;13.92;50.05
26865;BME280;40618;51.166;10.322;2023-06-14T04:56:39;97463.22;;;13.94;49.99
26865;BME280;40618;51.166;10.322;2023-06-14T04:59:05;97469.47;;;13.90;50.23
26865;BME280;40618;51.166;10.322;2023-06-14T05:01:31;97462.66;;;13.87;50.28
26865;BME280;40618;51.166;10.322;2023-06-14T05:03:58;97460.91;;;13.87;50.12
26865;BME280;40618;51.166;10.322;2023-06-14T05:06:24;97464.09;;;13.94;50.36
26865;BME280;40618;51.166;10.322;2023-06-14T05:08:50;97460.38;;;14.00;50.20
26865;BME280;40618;51.166;10.322;2023-06-14T05:11:16;97466.34;;;14.02;50.40
26865;BME280;40618;51.166;10.322;2023-06-14T05:13:44;97469.75;;;14.04;50.47
26865;BME280;40618;51.166;10.322;2023-06-14T05:16:13;97469.47;;;14.10;50.61
26865;BME280;40618;51.166;10.322;2023-06-14T05:18:40;97463.91;;;14.18;50.57
26865;BME280;40618;51.166;10.322;2023-06-14T05:21:06;97465.53;;;14.20;50.62
26865;BME280;40618;51.166;10.322;2023-06-14T05:23:32;97466.59;;;14.16;50.62
26865;BME280;40618;51.166;10.322;2023-06-14T05:25:58;97463.28;;;14.13;50.68
26865;BME280;40618;51.166;10.322;2023-06-14T05:28:24;97460.59;;;14.14;50.74
26865;BME280;40618;51.166;10.322;2023-06-14T05:30:50;97463.28;;;14.13;50.74
26865;BME280;40618;51.166;10.322;2023-06-14T05:33:16;97463.91;;;14.18;51.34
26865;BME280;40618;51.166;10.322;2023-06-14T05:35:42;97468.47;;;14.13;51.06
26865;BME280;40618;51.166;10.322;2023-06-14T05:38:07;97464.91;;;14.15;50.96
26865;BME280;40618;51.166;10.322;2023-06-14T05:40:33;97469.13;;;14.18;50.96
26865;BME280;40618;51.166;10.322;2023-06-14T05:42:59;97471.50;;;14.22;51.02
26865;BME280;40618;51.166;10.322;2023-06-14T05:45:25;97474.25;;;14.19;51.16
26865;BME280;40618;51.166;10.322;2023-06-14T05:47:51;97475.97;;;14.20;51.39
26865;BME280;40618;51.166;10.322;2023-06-14T05:50:19;97478.16;;;14.30;51.43
26865;BME280;40618;51.166;10.322;2023-06-14T05:52:45;97477.16;;;14.32;51.34
26865;BME280;40618;51.166;10.322;2023-06-14T05:55:11;97482.38;;;14.32;51.61
26865;BME280;40618;51.166;10.322;2023-06-14T05:57:37;97478.78;;;14.35;51.52
26865;BME280;40618;51.166;10.322;2023-06-14T06:00:03;97488.78;;;14.44;51.43
26865;BME280;40618;51.166;10.322;2023-06-14T06:02:41;97483.44;;;14.47;51.48
26865;BME280;40618;51.166;10.322;2023-06-14T06:05:11;97482.53;;;14.48;51.66
26865;BME280;40618;51.166;10.322;2023-06-14T06:07:37;97481.53;;;14.51;51.65
26865;BME280;40618;51.166;10.322;2023-06-14T06:10:05;97488.16;;;14.39;51.54
26865;BME280;40618;51.166;10.322;2023-06-14T06:12:31;97487.25;;;14.40;51.70
26865;BME280;40618;51.166;10.322;2023-06-14T06:14:58;97489.50;;;14.48;52.11
26865;BME280;40618;51.166;10.322;2023-06-14T06:17:25;97488.00;;;14.63;51.99
26865;BME280;40618;51.166;10.322;2023-06-14T06:19:51;97491.84;;;14.73;52.08
26865;BME280;40618;51.166;10.322;2023-06-14T06:22:17;97488.97;;;14.79;51.69
26865;BME280;40618;51.166;10.322;2023-06-14T06:24:43;97493.06;;;14.66;52.16
26865;BME280;40618;51.166;10.322;2023-06-14T06:27:08;97492.72;;;14.74;51.93
26865;BME280;40618;51.166;10.322;2023-06-14T06:29:35;97498.63;;;14.77;52.01
26865;BME280;40618;51.166;10.322;2023-06-14T06:32:01;97500.25;;;14.80;52.34
26865;BME280;40618;51.166;10.322;2023-06-14T06:34:27;97497.28;;;14.87;52.35
26865;BME280;40618;51.166;10.322;2023-06-14T06:36:53;97504.81;;;14.94;51.94
26865;BME280;40618;51.166;10.322;2023-06-14T06:39:20;97508.19;;;14.96;52.07
26865;BME280;40618;51.166;10.322;2023-06-14T06:41:46;97517.50;;;15.01;52.12
26865;BME280;40618;51.166;10.322;2023-06-14T06:44:11;97523.84;;;14.96;52.25
26865;BME280;40618;51.166;10.322;2023-06-14T06:46:38;97526.28;;;14.99;52.33
26865;BME280;40618;51.166;10.322;2023-06-14T06:49:06;97525.16;;;15.04;52.21
26865;BME280;40618;51.166;10.322;2023-06-14T06:51:32;97531.72;;;15.13;52.15
26865;BME280;40618;51.166;10.322;2023-06-14T06:53:58;97524.47;;;15.20;52.39
26865;BME280;40618;51.166;10.322;2023-06-14T06:56:23;97516.88;;;15.33;52.31
26865;BME280;40618;51.166;10.322;2023-06-14T06:58:50;97519.13;;;15.40;52.69
26865;BME280;40618;51.166;10.322;2023-06-14T07:01:16;97526.00;;;15.42;51.97
26865;BME280;40618;51.166;10.322;2023-06-14T07:03:43;97524.53;;;15.36;52.14
26865;BME280;40618;51.166;10.322;2023-06-14T07:06:08;97522.84;;;15.35;52.03
26865;BME280;40618;51.166;10.322;2023-06-14T07:08:35;97529.41;;;15.44;52.31
26865;BME280;40618;51.166;10.322;2023-06-14T07:11:01;97521.97;;;15.53;52.07
26865;BME280;40618;51.166;10.322;2023-06-14T07:13:27;97528.44;;;15.64;51.74
26865;BME280;40618;51.166;10.322;2023-06-14T07:15:59;97528.91;;;15.72;52.02
26865;BME280;40618;51.166;10.322;2023-06-14T07:18:27;97527.44;;;15.84;52.21
26865;BME280;40618;51.166;10.322;2023-06-14T07:20:53;97528.53;;;15.80;51.73
26865;BME280;40618;51.166;10.322;2023-06-14T07:23:20;97533.78;;;15.78;51.96
26865;BME280;40618;51.166;10.322;2023-06-14T07:25:46;97543.91;;;15.86;51.80
26865;BME280;40618;51.166;10.322;2023-06-14T07:28:11;97536.44;;;15.96;51.81
26865;BME280;40618;51.166;10.322;2023-06-14T07:30:37;97536.06;;;16.03;51.77
26865;BME280;40618;51.166;10.322;2023-06-14T07:33:03;97539.44;;;16.05;51.94
26865;BME280;40618;51.166;10.322;2023-06-14T07:35:28;97545.28;;;16.11;51.50
26865;BME280;40618;51.166;10.322;2023-06-14T07:37:54;97528.59;;;16.13;51.73
26865;BME280;40618;51.166;10.322;2023-06-14T07:40:20;97531.81;;;16.18;51.33
26865;BME280;40618;51.166;10.322;2023-06-14T07:42:46;97529.03;;;16.21;51.46
26865;BME280;40618;51.166;10.322;2023-06-14T07:45:13;97532.28;;;16.27;51.36
26865;BME280;40618;51.166;10.322;2023-06-14T07:47:39;97535.53;;;16.30;51.27
26865;BME280;40618;51.166;10.322;2023-06-14T07:50:05;97526.16;;;16.44;51.42
26865;BME280;40618;51.166;10.322;2023-06-14T07:52:31;97527.38;;;16.54;51.06
26865;BME280;40618;51.166;10.322;2023-06-14T07:54:56;97533.84;;;16.63;51.24
26865;BME280;40618;51.166;10.322;2023-06-14T07:57:23;97532.50;;;16.71;50.84
26865;BME280;40618;51.166;10.322;2023-06-14T07:59:48;97534.81;;;16.78;50.83
26865;BME280;40618;51.166;10.322;2023-06-14T08:02:15;97530.31;;;16.80;50.67
26865;BME280;40618;51.166;10.322;2023-06-14T08:04:41;97534.22;;;16.88;50.30
26865;BME280;40618;51.166;10.322;2023-06-14T08:07:07;97540.66;;;16.99;50.41
26865;BME280;40618;51.166;10.322;2023-06-14T08:09:33;97538.66;;;17.04;50.21
26865;BME280;40618;51.166;10.322;2023-06-14T08:12:02;97539.56;;;17.03;50.28
26865;BME280;40618;51.166;10.322;2023-06-14T08:14:32;97530.97;;;17.01;50.44
26865;BME280;40618;51.166;10.322;2023-06-14T08:16:58;97541.16;;;17.05;50.14
26865;BME280;40618;51.166;10.322;2023-06-14T08:19:24;97539.56;;;17.19;50.19
26865;BME280;40618;51.166;10.322;2023-06-14T08:21:50;97536.69;;;17.23;49.81
26865;BME280;40618;51.166;10.322;2023-06-14T08:24:16;97526.63;;;17.32;49.98
26865;BME280;40618;51.166;10.322;2023-06-14T08:26:42;97532.91;;;17.29;49.83
26865;BME280;40618;51.166;10.322;2023-06-14T08:29:08;97539.41;;;17.22;49.52
26865;BME280;40618;51.166;10.322;2023-06-14T08:31:33;97537.38;;;17.27;49.46
26865;BME280;40618;51.166;10.322;2023-06-14T08:33:59;97546.66;;;17.33;49.29
26865;BME280;40618;51.166;10.322;2023-06-14T08:36:25;97539.31;;;17.23;49.36
26865;BME280;40618;51.166;10.322;2023-06-14T08:38:50;97538.22;;;17.12;49.41
26865;BME280;40618;51.166;10.322;2023-06-14T08:41:25;97547.34;;;17.20;49.75
26865;BME280;40618;51.166;10.322;2023-06-14T08:43:52;97540.66;;;17.31;49.10
26865;BME280;40618;51.166;10.322;2023-06-14T08:46:18;97527.22;;;17.53;49.16
26865;BME280;40618;51.166;10.322;2023-06-14T08:48:51;97517.25;;;17.74;48.97
26865;BME280;40618;51.166;10.322;2023-06-14T08:51:20;97531.00;;;17.93;48.83
26865;BME280;40618;51.166;10.322;2023-06-14T08:53:55;97525.78;;;18.08;48.38
26865;BME280;40618;51.166;10.322;2023-06-14T08:56:27;97523.38;;;18.19;48.48
26865;BME280;40618;51.166;10.322;2023-06-14T08:58:54;97532.56;;;18.41;48.53
26865;BME280;40618;51.166;10.322;2023-06-14T09:01:22;97531.16;;;18.50;48.06
26865;BME280;40618;51.166;10.322;2023-06-14T09:03:49;97538.75;;;18.40;48.01
26865;BME280;40618;51.166;10.322;2023-06-14T09:06:15;97537.06;;;18.39;47.78
26865;BME280;40618;51.166;10.322;2023-06-14T09:08:45;97540.31;;;18.42;47.92
26865;BME280;40618;51.166;10.322;2023-06-14T09:11:13;97554.66;;;18.51;47.79
26865;BME280;40618;51.166;10.322;2023-06-14T09:13:41;97538.00;;;18.67;47.47
26865;BME280;40618;51.166;10.322;2023-06-14T09:16:08;97541.72;;;18.63;47.22
26865;BME280;40618;51.166;10.322;2023-06-14T09:21:13;97546.09;;;19.05;47.29
26865;BME280;40618;51.166;10.322;2023-06-14T09:23:45;97546.53;;;19.26;46.85
26865;BME280;40618;51.166;10.322;2023-06-14T09:26:17;97554.66;;;19.36;46.97
26865;BME280;40618;51.166;10.322;2023-06-14T09:28:49;97546.94;;;19.48;46.68
26865;BME280;40618;51.166;10.322;2023-06-14T09:31:19;97554.31;;;19.55;46.58
26865;BME280;40618;51.166;10.322;2023-06-14T09:33:47;97556.78;;;19.71;46.45
26865;BME280;40618;51.166;10.322;2023-06-14T09:36:18;97562.31;;;19.81;46.22
26865;BME280;40618;51.166;10.322;2023-06-14T09:38:57;97566.25;;;19.74;46.20
26865;BME280;40618;51.166;10.322;2023-06-14T09:44:06;97561.00;;;19.74;46.02
26865;BME280;40618;51.166;10.322;2023-06-14T09:46:34;97562.09;;;19.84;46.08
26865;BME280;40618;51.166;10.322;2023-06-14T09:49:01;97557.72;;;19.98;45.75
26865;BME280;40618;51.166;10.322;2023-06-14T09:51:28;97567.78;;;19.91;45.37
26865;BME280;40618;51.166;10.322;2023-06-14T09:54:00;97565.28;;;19.89;45.48
26865;BME280;40618;51.166;10.322;2023-06-14T09:56:31;97556.97;;;19.95;45.85
26865;BME280;40618;51.166;10.322;2023-06-14T09:59:04;97559.00;;;20.05;45.49
26865;BME280;40618;51.166;10.322;2023-06-14T10:01:32;97570.97;;;19.96;45.48
26865;BME280;40618;51.166;10.322;2023-06-14T10:04:07;97579.91;;;19.79;45.44
26865;BME280;40618;51.166;10.322;2023-06-14T10:06:39;97578.06;;;19.81;45.12
26865;BME280;40618;51.166;10.322;2023-06-14T10:09:10;97576.94;;;19.71;45.49
26865;BME280;40618;51.166;10.322;2023-06-14T10:11:36;97565.88;;;19.80;45.50
26865;BME280;40618;51.166;10.322;2023-06-14T10:14:04;97560.66;;;19.93;45.27
26865;BME280;40618;51.166;10.322;2023-06-14T10:16:39;97561.41;;;19.95;44.88
26865;BME280;40618;51.166;10.322;2023-06-14T10:19:30;97552.78;;;19.93;45.03
26865;BME280;40618;51.166;10.322;2023-06-14T10:22:05;97566.75;;;20.06;45.05
26865;BME280;40618;51.166;10.322;2023-06-14T10:24:42;97558.16;;;20.17;45.04
26865;BME280;40618;51.166;10.322;2023-06-14T10:27:08;97559.34;;;20.39;44.94
26865;BME280;40618;51.166;10.322;2023-06-14T10:32:27;97560.19;;;20.52;44.40
26865;BME280;40618;51.166;10.322;2023-06-14T10:34:59;97563.03;;;20.49;44.09
26865;BME280;40618;51.166;10.322;2023-06-14T10:37:27;97563.22;;;20.59;44.51
26865;BME280;40618;51.166;10.322;2023-06-14T10:39:52;97551.66;;;20.74;44.38
26865;BME280;40618;51.166;10.322;2023-06-14T10:42:19;97549.09;;;20.86;44.05
26865;BME280;40618;51.166;10.322;2023-06-14T10:44:49;97553.31;;;21.01;44.14
26865;BME280;40618;51.166;10.322;2023-06-14T10:47:33;97553.50;;;20.98;43.56
26865;BME280;40618;51.166;10.322;2023-06-14T10:50:07;97544.88;;;20.96;43.51
26865;BME280;40618;51.166;10.322;2023-06-14T10:52:39;97542.97;;;21.11;43.22
26865;BME280;40618;51.166;10.322;2023-06-14T10:55:13;97544.19;;;21.18;43.42
26865;BME280;40618;51.166;10.322;2023-06-14T10:57:44;97541.53;;;21.31;43.23
26865;BME280;40618;51.166;10.322;2023-06-14T11:00:12;97545.31;;;21.51;42.91
26865;BME280;40618;51.166;10.322;2023-06-14T11:05:30;97533.59;;;21.68;42.70
26865;BME280;40618;51.166;10.322;2023-06-14T11:11:06;97535.34;;;21.92;42.79
26865;BME280;40618;51.166;10.322;2023-06-14T11:13:32;97542.88;;;21.96;42.22
26865;BME280;40618;51.166;10.322;2023-06-14T11:15:59;97547.34;;;21.72;42.01
26865;BME280;40618;51.166;10.322;2023-06-14T11:18:24;97536.44;;;21.65;42.21
26865;BME280;40618;51.166;10.322;2023-06-14T11:20:52;97533.34;;;21.71;42.08
26865;BME280;40618;51.166;10.322;2023-06-14T11:23:18;97530.59;;;21.73;41.99
26865;BME280;40618;51.166;10.322;2023-06-14T11:25:52;97537.28;;;21.66;41.67
26865;BME280;40618;51.166;10.322;2023-06-14T11:28:18;97540.16;;;21.50;41.40
26865;BME280;40618;51.166;10.322;2023-06-14T11:30:48;97544.34;;;21.28;41.47
26865;BME280;40618;51.166;10.322;2023-06-14T11:33:17;97540.91;;;21.27;41.53
26865;BME280;40618;51.166;10.322;2023-06-14T11:35:44;97535.28;;;21.32;41.25
26865;BME280;40618;51.166;10.322;2023-06-14T11:38:11;97525.72;;;21.55;41.52
26865;BME280;40618;51.166;10.322;2023-06-14T11:40:38;97526.50;;;21.69;41.03
26865;BME280;40618;51.166;10.322;2023-06-14T11:43:03;97530.63;;;21.84;41.26
26865;BME280;40618;51.166;10.322;2023-06-14T11:45:30;97515.25;;;22.02;40.98
26865;BME280;40618;51.166;10.322;2023-06-14T11:47:57;97512.94;;;22.09;41.13
26865;BME280;40618;51.166;10.322;2023-06-14T11:50:24;97528.13;;;22.29;40.96
26865;BME280;40618;51.166;10.322;2023-06-14T11:52:59;97528.63;;;22.46;40.57
26865;BME280;40618;51.166;10.322;2023-06-14T11:55:32;97520.22;;;22.52;40.43
26865;BME280;40618;51.166;10.322;2023-06-14T11:58:10;97526.25;;;22.54;40.38
26865;BME280;40618;51.166;10.322;2023-06-14T12:00:36;97520.09;;;22.54;40.28
26865;BME280;40618;51.166;10.322;2023-06-14T12:03:03;97522.78;;;22.65;40.07
26865;BME280;40618;51.166;10.322;2023-06-14T12:05:29;97512.53;;;22.72;39.66
26865;BME280;40618;51.166;10.322;2023-06-14T12:08:02;97514.94;;;22.63;39.99
26865;BME280;40618;51.166;10.322;2023-06-14T12:10:29;97529.84;;;22.76;40.07
26865;BME280;40618;51.166;10.322;2023-06-14T12:12:58;97519.16;;;22.77;39.75
26865;BME280;40618;51.166;10.322;2023-06-14T12:15:24;97516.97;;;22.82;40.01
26865;BME280;40618;51.166;10.322;2023-06-14T12:17:54;97512.28;;;22.97;39.92
26865;BME280;40618;51.166;10.322;2023-06-14T12:20:20;97508.19;;;23.16;39.45
26865;BME280;40618;51.166;10.322;2023-06-14T12:22:54;97515.88;;;23.19;39.57
26865;BME280;40618;51.166;10.322;2023-06-14T12:25:34;97520.06;;;22.99;39.27
26865;BME280;40618;51.166;10.322;2023-06-14T12:28:09;97512.06;;;22.89;39.46
26865;BME280;40618;51.166;10.322;2023-06-14T12:30:36;97526.34;;;22.98;39.30
26865;BME280;40618;51.166;10.322;2023-06-14T12:33:03;97507.00;;;23.09;39.38
26865;BME280;40618;51.166;10.322;2023-06-14T12:35:29;97513.47;;;23.16;39.27
26865;BME280;40618;51.166;10.322;2023-06-14T12:37:55;97520.06;;;23.22;39.35
26865;BME280;40618;51.166;10.322;2023-06-14T12:40:21;97512.16;;;23.10;38.98
26865;BME280;40618;51.166;10.322;2023-06-14T12:42:47;97510.00;;;22.93;38.90
26865;BME280;40618;51.166;10.322;2023-06-14T12:45:13;97520.72;;;22.80;38.98
26865;BME280;40618;51.166;10.322;2023-06-14T12:47:39;97516.03;;;22.84;39.04
26865;BME280;40618;51.166;10.322;2023-06-14T12:50:05;97507.28;;;22.83;38.96
26865;BME280;40618;51.166;10.322;2023-06-14T12:52:32;97502.78;;;22.95;38.82
26865;BME280;40618;51.166;10.322;2023-06-14T12:55:07;97511.56;;;22.95;38.85
26865;BME280;40618;51.166;10.322;2023-06-14T12:57:33;97511.19;;;23.11;38.70
26865;BME280;40618;51.166;10.322;2023-06-14T13:00:02;97508.69;;;23.21;38.68
26865;BME280;40618;51.166;10.322;2023-06-14T13:02:28;97507.91;;;23.30;38.71
26865;BME280;40618;51.166;10.322;2023-06-14T13:04:54;97501.06;;;23.39;38.59
26865;BME280;40618;51.166;10.322;2023-06-14T13:07:20;97506.13;;;23.31;38.39
26865;BME280;40618;51.166;10.322;2023-06-14T13:09:45;97513.50;;;23.05;38.22
26865;BME280;40618;51.166;10.322;2023-06-14T13:12:11;97519.28;;;22.87;38.19